Time;durP1;ratioP1;P1;durP2;ratioP2;P2;SDS_P1;SDS_P2;PMS_P1;PMS_P2;Temp;Humidity;BMP_temperature;BMP_pressure;BME280_temperature;BME280_humidity;BME280_pressure;Samples;Min_cycle;Max_cycle;Signal;HPM_P1;HPM_P2
2022/10/31 00:01:56;;;;;;;1999.90;999.90;;;16.40;99.90;;;;;;5054740;28;20203;-67
2022/10/31 00:04:21;;;;;;;1999.90;999.90;;;16.40;99.90;;;;;;5054738;28;20663;-67
2022/10/31 00:06:47;;;;;;;1999.90;999.90;;;16.30;99.90;;;;;;5055292;28;20163;-67
2022/10/31 00:09:13;;;;;;;1999.90;999.90;;;16.20;99.90;;;;;;5054895;28;20265;-66
2022/10/31 00:11:38;;;;;;;1999.90;999.90;;;16.20;99.90;;;;;;5054059;28;20533;-66
2022/10/31 00:14:04;;;;;;;1999.90;999.90;;;16.30;99.90;;;;;;5055712;28;20190;-67
2022/10/31 00:16:30;;;;;;;1999.90;999.90;;;16.30;99.90;;;;;;5058624;28;20652;-66
2022/10/31 00:19:02;;;;;;;1999.90;999.90;;;16.30;99.90;;;;;;5058850;28;20460;-67
2022/10/31 00:21:29;;;;;;;1999.90;999.90;;;16.30;99.90;;;;;;5059020;28;20178;-66
2022/10/31 00:23:54;;;;;;;1999.90;999.90;;;16.20;99.90;;;;;;5058422;28;20460;-66
2022/10/31 00:26:20;;;;;;;1999.90;999.90;;;16.20;99.90;;;;;;5056419;28;20413;-66
2022/10/31 00:28:46;;;;;;;1999.90;999.90;;;16.30;99.90;;;;;;5055113;28;20247;-66
2022/10/31 00:31:12;;;;;;;1999.90;999.90;;;16.20;99.90;;;;;;5055270;28;20173;-66
2022/10/31 00:33:39;;;;;;;1999.90;999.90;;;16.30;99.90;;;;;;5055164;28;20240;-67
2022/10/31 00:36:06;;;;;;;1999.90;999.90;;;16.30;99.90;;;;;;5055090;28;20413;-66
2022/10/31 00:38:32;;;;;;;1999.90;999.90;;;16.30;99.90;;;;;;5054865;28;20409;-66
2022/10/31 00:40:58;;;;;;;1999.90;999.90;;;16.40;99.90;;;;;;5055530;28;20488;-67
2022/10/31 00:43:23;;;;;;;1999.90;999.90;;;16.50;99.90;;;;;;5055420;28;20498;-67
2022/10/31 00:45:49;;;;;;;1999.90;999.90;;;16.50;99.90;;;;;;5055512;28;20184;-67
2022/10/31 00:48:15;;;;;;;1999.90;999.90;;;16.50;99.90;;;;;;5054975;28;20214;-67
2022/10/31 00:50:42;;;;;;;1999.90;999.90;;;16.50;99.90;;;;;;5058670;28;20651;-67
2022/10/31 00:53:07;;;;;;;1999.90;999.90;;;16.40;99.90;;;;;;5055962;28;20212;-66
2022/10/31 00:55:33;;;;;;;1999.90;999.90;;;16.40;99.90;;;;;;5060336;28;20444;-67
2022/10/31 00:57:58;;;;;;;1999.90;999.90;;;16.30;99.90;;;;;;5055785;28;20632;-67
2022/10/31 01:00:24;;;;;;;1999.90;999.90;;;16.30;99.90;;;;;;5055314;28;20248;-67
2022/10/31 01:02:50;;;;;;;1999.90;999.90;;;16.20;99.90;;;;;;5055061;28;20657;-66
2022/10/31 01:05:15;;;;;;;1999.90;999.90;;;16.10;99.90;;;;;;5055749;28;20178;-66
2022/10/31 01:07:41;;;;;;;1999.90;999.90;;;16.10;99.90;;;;;;5054343;28;20257;-66
2022/10/31 01:10:08;;;;;;;1999.90;999.90;;;16.00;99.90;;;;;;5057511;28;20201;-67
2022/10/31 01:12:45;;;;;;;1999.90;999.90;;;16.00;99.90;;;;;;5056032;28;20899;-67
2022/10/31 01:15:13;;;;;;;1999.90;999.90;;;15.90;99.90;;;;;;5059763;28;20415;-67
2022/10/31 01:17:39;;;;;;;1999.90;999.90;;;15.90;99.90;;;;;;5058449;28;20408;-66
2022/10/31 01:20:07;;;;;;;1999.90;999.90;;;15.90;99.90;;;;;;5055502;28;20415;-66
2022/10/31 01:22:33;;;;;;;1999.90;999.90;;;15.90;99.90;;;;;;5055161;28;20179;-66
2022/10/31 01:24:59;;;;;;;1999.90;999.90;;;15.80;99.90;;;;;;5053628;28;20764;-67
2022/10/31 01:27:24;;;;;;;1999.90;999.90;;;15.80;99.90;;;;;;5053912;28;20206;-66
2022/10/31 01:29:50;;;;;;;1999.90;999.90;;;15.70;99.90;;;;;;5054769;28;20173;-66
2022/10/31 01:32:16;;;;;;;1999.90;999.90;;;15.70;99.90;;;;;;5055064;28;20664;-67
2022/10/31 01:34:41;;;;;;;1999.90;999.90;;;15.70;99.90;;;;;;5054263;28;20171;-66
2022/10/31 01:37:07;;;;;;;1999.90;999.90;;;15.60;99.90;;;;;;5054420;28;20219;-66
2022/10/31 01:39:32;;;;;;;1999.90;999.90;;;15.50;99.90;;;;;;5059196;28;20160;-67
2022/10/31 01:41:58;;;;;;;1999.90;999.90;;;15.50;99.90;;;;;;5060229;28;20175;-67
2022/10/31 01:44:24;;;;;;;1999.90;999.90;;;15.40;99.90;;;;;;5059347;28;20223;-67
2022/10/31 01:46:50;;;;;;;1999.90;999.90;;;15.30;99.90;;;;;;5059299;28;20641;-67
2022/10/31 01:49:21;;;;;;;1999.90;999.90;;;15.20;99.90;;;;;;5058903;28;20423;-66
2022/10/31 01:52:01;;;;;;;1999.90;999.90;;;15.00;99.90;;;;;;5055864;28;20170;-66
2022/10/31 01:54:34;;;;;;;1999.90;999.90;;;15.00;99.90;;;;;;5059364;28;20422;-67
2022/10/31 01:57:02;;;;;;;1999.90;999.90;;;14.80;99.90;;;;;;5059398;28;20417;-66
2022/10/31 01:59:32;;;;;;;1999.90;999.90;;;14.80;99.90;;;;;;5059740;28;20401;-66
2022/10/31 02:01:57;;;;;;;1999.90;999.90;;;14.70;99.90;;;;;;5058686;28;20440;-67
2022/10/31 02:04:25;;;;;;;1999.90;999.90;;;14.70;99.90;;;;;;5059389;28;20463;-67
2022/10/31 02:06:50;;;;;;;1999.90;999.90;;;14.60;99.90;;;;;;5059559;28;20613;-67
2022/10/31 02:09:17;;;;;;;1999.90;999.90;;;14.60;99.90;;;;;;5059348;28;20444;-66
2022/10/31 02:11:44;;;;;;;1999.90;999.90;;;14.50;99.90;;;;;;5058595;28;20171;-67
2022/10/31 02:14:10;;;;;;;1999.90;999.90;;;14.40;99.90;;;;;;5058884;28;21082;-66
2022/10/31 02:16:36;;;;;;;1999.90;999.90;;;14.40;99.90;;;;;;5059214;28;20826;-66
2022/10/31 02:19:04;;;;;;;1999.90;999.90;;;14.30;99.90;;;;;;5058833;28;20491;-67
2022/10/31 02:21:47;;;;;;;1999.90;999.90;;;14.20;99.90;;;;;;5102349;22;20171;-68
2022/10/31 02:24:44;;;;;;;1999.90;999.90;;;14.30;99.90;;;;;;5052318;28;20795;-68
2022/10/31 02:27:21;;;;;;;1999.90;999.90;;;14.20;99.90;;;;;;5053178;28;20386;-68
2022/10/31 02:30:06;;;;;;;1999.90;999.90;;;14.10;99.90;;;;;;5053098;28;20393;-68
2022/10/31 02:32:46;;;;;;;1999.90;999.90;;;14.10;99.90;;;;;;5052980;28;20455;-68
2022/10/31 02:35:41;;;;;;;1999.90;999.90;;;14.10;99.90;;;;;;5052929;28;20405;-68
2022/10/31 02:38:38;;;;;;;1999.90;999.90;;;14.00;99.90;;;;;;5052707;28;20433;-68
2022/10/31 02:41:08;;;;;;;1999.90;999.90;;;14.00;99.90;;;;;;5029352;28;20486;-68
2022/10/31 02:44:05;;;;;;;1999.90;999.90;;;14.00;99.90;;;;;;5052779;28;20420;-68
2022/10/31 02:46:39;;;;;;;1999.90;999.90;;;14.00;99.90;;;;;;5052679;28;20401;-68
2022/10/31 02:49:30;;;;;;;1999.90;999.90;;;13.90;99.90;;;;;;5052718;28;20919;-68
2022/10/31 02:51:55;;;;;;;1999.90;999.90;;;13.80;99.90;;;;;;5051994;28;20465;-68
2022/10/31 02:54:24;;;;;;;1999.90;999.90;;;13.80;99.90;;;;;;5052581;28;20402;-68
2022/10/31 02:56:54;;;;;;;1999.90;999.90;;;13.80;99.90;;;;;;5052514;28;20172;-68
2022/10/31 02:59:21;;;;;;;1999.90;999.90;;;13.90;99.90;;;;;;5052535;28;20491;-68
2022/10/31 03:02:07;;;;;;;1999.90;999.90;;;13.90;99.90;;;;;;5052437;28;20425;-68
2022/10/31 03:05:10;;;;;;;1999.90;999.90;;;14.00;99.90;;;;;;5052401;28;20958;-68
2022/10/31 03:07:56;;;;;;;1999.90;999.90;;;14.00;99.90;;;;;;5052187;28;20408;-68
2022/10/31 03:10:44;;;;;;;1999.90;999.90;;;14.00;99.90;;;;;;5052352;28;20434;-68
2022/10/31 03:13:28;;;;;;;1999.90;999.90;;;13.90;99.90;;;;;;5052397;28;20553;-68
2022/10/31 03:16:06;;;;;;;1999.90;999.90;;;13.90;99.90;;;;;;5052248;28;20491;-68
2022/10/31 03:18:40;;;;;;;1999.90;999.90;;;14.00;99.90;;;;;;5052049;28;20423;-68
2022/10/31 03:21:20;;;;;;;1999.90;999.90;;;14.00;99.90;;;;;;5052159;28;20393;-68
2022/10/31 03:23:49;;;;;;;1999.90;999.90;;;14.10;99.90;;;;;;5051938;28;20448;-68
2022/10/31 03:26:16;;;;;;;1999.90;999.90;;;14.20;99.90;;;;;;5052004;28;20923;-68
2022/10/31 03:28:50;;;;;;;1999.90;999.90;;;14.30;99.90;;;;;;5051930;28;20449;-68
2022/10/31 03:31:19;;;;;;;1999.90;999.90;;;14.30;99.90;;;;;;5052108;28;20496;-68
2022/10/31 03:33:47;;;;;;;1999.90;999.90;;;14.30;99.90;;;;;;5051895;28;20442;-68
2022/10/31 03:36:15;;;;;;;1999.90;999.90;;;14.30;99.90;;;;;;5051969;28;20896;-69
2022/10/31 03:38:42;;;;;;;1999.90;999.90;;;14.30;99.90;;;;;;5051910;28;20412;-69
2022/10/31 03:41:13;;;;;;;1999.90;999.90;;;14.30;99.90;;;;;;5052047;28;20439;-69
2022/10/31 03:43:46;;;;;;;1999.90;999.90;;;14.40;99.90;;;;;;5051921;28;20641;-68
2022/10/31 03:46:12;;;;;;;1999.90;999.90;;;14.40;99.90;;;;;;5051814;28;20414;-68
2022/10/31 03:48:38;;;;;;;1999.90;999.90;;;14.40;99.90;;;;;;5051170;28;20410;-68
2022/10/31 03:51:14;;;;;;;1999.90;999.90;;;14.30;99.90;;;;;;5051822;28;20401;-68
2022/10/31 03:53:51;;;;;;;1999.90;999.90;;;14.30;99.90;;;;;;5051781;28;20557;-68
2022/10/31 03:56:37;;;;;;;1999.90;999.90;;;14.30;99.90;;;;;;5051721;28;20409;-68
2022/10/31 03:59:12;;;;;;;1999.90;999.90;;;14.30;99.90;;;;;;5051745;28;20398;-68
2022/10/31 04:01:41;;;;;;;1999.90;999.90;;;14.30;99.90;;;;;;5051759;28;20398;-68
2022/10/31 04:04:07;;;;;;;1999.90;999.90;;;14.20;99.90;;;;;;5051706;28;20414;-68
2022/10/31 04:06:36;;;;;;;1999.90;999.90;;;14.30;99.90;;;;;;5051565;28;20400;-68
2022/10/31 04:09:05;;;;;;;1999.90;999.90;;;14.30;99.90;;;;;;5051616;28;20511;-68
2022/10/31 04:11:35;;;;;;;1999.90;999.90;;;14.30;99.90;;;;;;5051630;28;20413;-68
2022/10/31 04:14:03;;;;;;;1999.90;999.90;;;14.30;99.90;;;;;;5051629;28;20449;-68
2022/10/31 04:16:29;;;;;;;1999.90;999.90;;;14.30;99.90;;;;;;5051602;28;20408;-68
2022/10/31 04:18:55;;;;;;;1999.90;999.90;;;14.30;99.90;;;;;;5051409;28;20775;-68
2022/10/31 04:21:28;;;;;;;1999.90;999.90;;;14.30;99.90;;;;;;5051537;28;20404;-68
2022/10/31 04:23:54;;;;;;;1999.90;999.90;;;14.30;99.90;;;;;;5051414;28;20415;-68
2022/10/31 04:26:19;;;;;;;1999.90;999.90;;;14.30;99.90;;;;;;5051732;28;20403;-68
2022/10/31 04:28:45;;;;;;;1999.90;999.90;;;14.30;99.90;;;;;;5051494;28;20410;-69
2022/10/31 04:31:11;;;;;;;1999.90;999.90;;;14.30;99.90;;;;;;5051550;28;20174;-69
2022/10/31 04:33:38;;;;;;;1999.90;999.90;;;14.30;99.90;;;;;;5051299;28;20195;-69
2022/10/31 04:36:04;;;;;;;1999.90;999.90;;;14.30;99.90;;;;;;5051277;28;20434;-69
2022/10/31 04:38:30;;;;;;;1999.90;999.90;;;14.30;99.90;;;;;;5051150;28;20509;-68
2022/10/31 04:40:55;;;;;;;1999.90;999.90;;;14.30;99.90;;;;;;5051340;28;20490;-69
2022/10/31 04:43:21;;;;;;;1999.90;999.90;;;14.20;99.90;;;;;;5051428;28;20686;-68
2022/10/31 04:45:47;;;;;;;1999.90;999.90;;;14.30;99.90;;;;;;5051451;28;20200;-69
2022/10/31 04:48:12;;;;;;;1999.90;999.90;;;14.30;99.90;;;;;;5051119;28;20682;-69
2022/10/31 04:50:38;;;;;;;1999.90;999.90;;;14.30;99.90;;;;;;5051166;28;20172;-69
2022/10/31 04:53:03;;;;;;;1999.90;999.90;;;14.20;99.90;;;;;;5051104;28;20196;-69
2022/10/31 04:55:29;;;;;;;1999.90;999.90;;;14.20;99.90;;;;;;5051242;28;20168;-69
2022/10/31 04:57:54;;;;;;;1999.90;999.90;;;14.20;99.90;;;;;;5051018;28;20727;-69
2022/10/31 05:00:21;;;;;;;1999.90;999.90;;;14.20;99.90;;;;;;5052274;28;20666;-69
2022/10/31 05:02:53;;;;;;;1999.90;999.90;;;14.20;99.90;;;;;;5054649;28;20196;-69
2022/10/31 05:05:22;;;;;;;1999.90;999.90;;;14.20;99.90;;;;;;5054617;28;20414;-69
2022/10/31 05:07:49;;;;;;;1999.90;999.90;;;14.20;99.90;;;;;;5054350;28;20772;-69
2022/10/31 05:10:18;;;;;;;1999.90;999.90;;;14.20;99.90;;;;;;5054618;28;20494;-69
2022/10/31 05:12:51;;;;;;;1999.90;999.90;;;14.10;99.90;;;;;;5054375;28;20484;-69
2022/10/31 05:15:18;;;;;;;1999.90;999.90;;;14.10;99.90;;;;;;5054589;28;20472;-68
2022/10/31 05:17:44;;;;;;;1999.90;999.90;;;14.10;99.90;;;;;;5054116;28;20402;-69
2022/10/31 05:20:14;;;;;;;1999.90;999.90;;;14.10;99.90;;;;;;5054454;28;20400;-69
2022/10/31 05:22:48;;;;;;;1999.90;999.90;;;14.10;99.90;;;;;;5054143;28;20971;-68
2022/10/31 05:25:14;;;;;;;1999.90;999.90;;;14.10;99.90;;;;;;5054331;28;20917;-69
2022/10/31 05:27:45;;;;;;;1999.90;999.90;;;14.10;99.90;;;;;;5053998;28;20417;-69
2022/10/31 05:30:13;;;;;;;1999.90;999.90;;;14.20;99.90;;;;;;5054237;28;20406;-68
2022/10/31 05:32:40;;;;;;;1999.90;999.90;;;14.20;99.90;;;;;;5054079;28;20457;-69
2022/10/31 05:35:08;;;;;;;1999.90;999.90;;;14.30;99.90;;;;;;5054229;28;20437;-69
2022/10/31 05:37:36;;;;;;;1999.90;999.90;;;14.30;99.90;;;;;;5053926;28;20399;-69
2022/10/31 05:40:07;;;;;;;1999.90;999.90;;;14.30;99.90;;;;;;5054146;28;20964;-69
2022/10/31 05:42:33;;;;;;;1999.90;999.90;;;14.30;99.90;;;;;;5054075;28;20480;-69
2022/10/31 05:44:59;;;;;;;1999.90;999.90;;;14.30;99.90;;;;;;5054074;28;20436;-68
2022/10/31 05:47:25;;;;;;;1999.90;999.90;;;14.30;99.90;;;;;;5035903;28;20443;-68
2022/10/31 05:49:50;;;;;;;1999.90;999.90;;;14.30;99.90;;;;;;5053862;28;20186;-68
2022/10/31 05:52:16;;;;;;;1999.90;999.90;;;14.30;99.90;;;;;;5053917;28;20290;-68
2022/10/31 05:54:42;;;;;;;1999.90;999.90;;;14.30;99.90;;;;;;5053964;28;20173;-69
2022/10/31 05:57:08;;;;;;;1999.90;999.90;;;14.30;99.90;;;;;;5053692;28;21043;-69
2022/10/31 05:59:33;;;;;;;1999.90;999.90;;;14.20;99.90;;;;;;5053758;28;20176;-69
2022/10/31 06:01:59;;;;;;;1999.90;999.90;;;14.20;99.90;;;;;;5053729;28;20189;-69
2022/10/31 06:04:24;;;;;;;1999.90;999.90;;;14.10;99.90;;;;;;5053682;28;20594;-69
2022/10/31 06:06:50;;;;;;;1999.90;999.90;;;14.10;99.90;;;;;;5053344;28;20588;-69
2022/10/31 06:09:16;;;;;;;1999.90;999.90;;;14.00;99.90;;;;;;5053469;28;20162;-69
2022/10/31 06:11:41;;;;;;;1999.90;999.90;;;14.00;99.90;;;;;;5053075;28;20171;-68
2022/10/31 06:14:07;;;;;;;1999.90;999.90;;;14.00;99.90;;;;;;5053425;28;20176;-68
2022/10/31 06:16:32;;;;;;;1999.90;999.90;;;13.80;99.90;;;;;;5053361;28;20171;-68
2022/10/31 06:18:58;;;;;;;1999.90;999.90;;;13.80;99.90;;;;;;5053163;28;20178;-69
2022/10/31 06:21:24;;;;;;;1999.90;999.90;;;13.70;99.90;;;;;;5053618;28;20868;-68
2022/10/31 06:23:49;;;;;;;1999.90;999.90;;;13.60;99.90;;;;;;5053517;28;20181;-68
2022/10/31 06:26:15;;;;;;;1999.90;999.90;;;13.60;99.90;;;;;;5053521;28;20166;-68
2022/10/31 06:28:41;;;;;;;1999.90;999.90;;;13.60;99.90;;;;;;5052956;28;20673;-68
2022/10/31 06:31:06;;;;;;;1999.90;999.90;;;13.60;99.90;;;;;;5053192;28;20166;-69
2022/10/31 06:33:33;;;;;;;1999.90;999.90;;;13.50;99.90;;;;;;5053083;28;20814;-68
2022/10/31 06:35:59;;;;;;;1999.90;999.90;;;13.50;99.90;;;;;;5052919;28;20168;-69
2022/10/31 06:38:26;;;;;;;1999.90;999.90;;;13.50;99.90;;;;;;5052723;28;20410;-69
2022/10/31 06:40:52;;;;;;;1999.90;999.90;;;13.50;99.90;;;;;;5053213;28;20479;-68
2022/10/31 06:43:18;;;;;;;1999.90;999.90;;;13.40;99.90;;;;;;5052797;28;20474;-69
2022/10/31 06:45:43;;;;;;;1999.90;999.90;;;13.40;99.90;;;;;;5053170;28;20408;-68
2022/10/31 06:48:09;;;;;;;1999.90;999.90;;;13.40;99.90;;;;;;5052490;28;20544;-69
2022/10/31 06:50:34;;;;;;;1999.90;999.90;;;13.30;99.90;;;;;;5052900;28;20292;-69
2022/10/31 06:53:00;;;;;;;1999.90;999.90;;;13.30;99.90;;;;;;5052635;28;20201;-68
2022/10/31 06:55:26;;;;;;;1999.90;999.90;;;13.40;99.90;;;;;;5052660;28;20633;-69
2022/10/31 06:57:57;;;;;;;1999.90;999.90;;;13.40;99.90;;;;;;5052389;28;20193;-69
2022/10/31 07:00:23;;;;;;;1999.90;999.90;;;13.40;99.90;;;;;;5052595;28;20414;-69
2022/10/31 07:02:57;;;;;;;1999.90;999.90;;;13.50;99.90;;;;;;5052419;28;20450;-69
2022/10/31 07:05:23;;;;;;;1999.90;999.90;;;13.50;99.90;;;;;;5052601;28;20417;-68
2022/10/31 07:07:56;;;;;;;1999.90;999.90;;;13.50;99.90;;;;;;5052176;28;20434;-68
2022/10/31 07:10:23;;;;;;;1999.90;999.90;;;13.60;99.90;;;;;;5052483;28;20415;-69
2022/10/31 07:12:57;;;;;;;1999.90;999.90;;;13.50;99.90;;;;;;5052658;28;20456;-68
2022/10/31 07:15:24;;;;;;;1999.90;999.90;;;13.50;99.90;;;;;;5052569;28;20411;-68
2022/10/31 07:17:50;;;;;;;1999.90;999.90;;;13.50;99.90;;;;;;5051916;28;20500;-69
2022/10/31 07:20:16;;;;;;;1999.90;999.90;;;13.50;99.90;;;;;;5052254;28;20500;-69
2022/10/31 07:22:41;;;;;;;1999.90;999.90;;;13.50;99.90;;;;;;5051713;28;20202;-68
2022/10/31 07:25:08;;;;;;;1999.90;999.90;;;13.50;99.90;;;;;;5052725;28;20461;-68
2022/10/31 07:27:37;;;;;;;1999.90;999.90;;;13.50;99.90;;;;;;5052118;28;20172;-68
2022/10/31 07:30:03;;;;;;;1999.90;999.90;;;13.60;99.90;;;;;;5052207;28;20404;-69
2022/10/31 07:32:41;;;;;;;1999.90;999.90;;;13.60;99.90;;;;;;5051997;28;20453;-69
2022/10/31 07:35:14;;;;;;;1999.90;999.90;;;13.60;99.90;;;;;;5052219;28;20446;-69
2022/10/31 07:37:40;;;;;;;1999.90;999.90;;;13.70;99.90;;;;;;5051774;28;20983;-68
2022/10/31 07:40:07;;;;;;;1999.90;999.90;;;13.70;99.90;;;;;;5052095;28;20434;-69
2022/10/31 07:42:36;;;;;;;1999.90;999.90;;;13.80;99.90;;;;;;5051971;28;20200;-69
2022/10/31 07:45:03;;;;;;;1999.90;999.90;;;13.80;99.90;;;;;;5051895;28;21138;-68
2022/10/31 07:47:29;;;;;;;1999.90;999.90;;;13.90;99.90;;;;;;5051864;28;20779;-69
2022/10/31 07:49:54;;;;;;;1999.90;999.90;;;13.90;99.90;;;;;;5051708;28;20400;-69
2022/10/31 07:52:20;;;;;;;1999.90;999.90;;;13.90;99.90;;;;;;5052020;28;20200;-68
2022/10/31 07:54:45;;;;;;;1999.90;999.90;;;13.90;99.90;;;;;;5051933;28;20255;-69
2022/10/31 07:57:11;;;;;;;1999.90;999.90;;;13.90;99.90;;;;;;5051582;28;20168;-68
2022/10/31 07:59:36;;;;;;;1999.90;999.90;;;13.90;99.90;;;;;;5051899;28;20544;-69
2022/10/31 08:02:02;;;;;;;1999.90;999.90;;;13.90;99.90;;;;;;5051942;28;20197;-69
2022/10/31 08:04:28;;;;;;;1999.90;999.90;;;14.00;99.90;;;;;;5052031;28;20194;-68
2022/10/31 08:06:53;;;;;;;1999.90;999.90;;;14.10;99.90;;;;;;5051888;28;20222;-69
2022/10/31 08:09:19;;;;;;;1999.90;999.90;;;14.10;99.90;;;;;;5051970;28;20174;-69
2022/10/31 08:11:44;;;;;;;1999.90;999.90;;;14.20;99.90;;;;;;5051850;28;20225;-69
2022/10/31 08:14:10;;;;;;;1999.90;999.90;;;14.20;99.90;;;;;;5051773;28;20610;-69
2022/10/31 08:16:35;;;;;;;1999.90;999.90;;;14.30;99.90;;;;;;5051672;28;20246;-69
2022/10/31 08:19:01;;;;;;;1999.90;999.90;;;14.40;99.90;;;;;;5051737;28;20173;-69
2022/10/31 08:21:27;;;;;;;1999.90;999.90;;;14.40;99.90;;;;;;5051790;28;20171;-69
2022/10/31 08:23:52;;;;;;;1999.90;999.90;;;14.50;99.90;;;;;;5100524;22;20222;-67
2022/10/31 08:26:18;;;;;;;1999.90;999.90;;;14.60;99.90;;;;;;5092023;28;20171;-67
2022/10/31 08:28:43;;;;;;;1999.90;999.90;;;14.60;99.90;;;;;;5094225;28;20171;-67
2022/10/31 08:31:09;;;;;;;1999.90;999.90;;;14.60;99.90;;;;;;5093838;28;20607;-66
2022/10/31 08:33:35;;;;;;;1999.90;999.90;;;14.70;99.90;;;;;;5092310;28;20286;-66
2022/10/31 08:36:01;;;;;;;1999.90;999.90;;;14.80;99.90;;;;;;5101022;28;20401;-67
2022/10/31 08:38:27;;;;;;;1999.90;999.90;;;14.90;99.90;;;;;;5099802;28;20407;-66
2022/10/31 08:40:52;;;;;;;1999.90;999.90;;;14.90;99.90;;;;;;5095718;28;20660;-66
2022/10/31 08:43:18;;;;;;;1999.90;999.90;;;15.00;99.90;;;;;;5095621;28;20680;-66
2022/10/31 08:45:47;;;;;;;1999.90;999.90;;;15.10;99.90;;;;;;5095802;28;20170;-67
2022/10/31 08:48:14;;;;;;;1999.90;999.90;;;15.20;99.90;;;;;;5095494;28;20795;-67
2022/10/31 08:50:40;;;;;;;1999.90;999.90;;;15.30;99.90;;;;;;5095633;28;20963;-66
2022/10/31 08:53:11;;;;;;;1999.90;999.90;;;15.40;99.90;;;;;;5095893;28;20452;-66
2022/10/31 08:55:40;;;;;;;1999.90;999.90;;;15.50;99.90;;;;;;5100820;28;20493;-67
2022/10/31 08:58:09;;;;;;;1999.90;999.90;;;15.60;99.90;;;;;;5100948;28;20400;-66
2022/10/31 09:00:35;;;;;;;1999.90;999.90;;;15.70;99.90;;;;;;5100299;28;20400;-67
2022/10/31 09:03:08;;;;;;;1999.90;999.90;;;15.80;99.90;;;;;;5100720;28;20427;-67
2022/10/31 09:05:34;;;;;;;1999.90;999.90;;;15.90;99.90;;;;;;5095720;28;20413;-66
2022/10/31 09:08:01;;;;;;;1999.90;999.90;;;16.00;99.90;;;;;;5095125;28;20406;-67
2022/10/31 09:10:28;;;;;;;1999.90;999.90;;;16.00;99.90;;;;;;5095183;28;20656;-67
2022/10/31 09:12:56;;;;;;;1999.90;999.90;;;16.00;99.90;;;;;;5095056;28;20451;-67
2022/10/31 09:15:22;;;;;;;1999.90;999.90;;;16.10;99.90;;;;;;5095032;28;20437;-67
2022/10/31 09:17:48;;;;;;;1999.90;999.90;;;16.10;99.90;;;;;;5096523;28;20410;-66
2022/10/31 09:20:13;;;;;;;1999.90;999.90;;;16.20;99.90;;;;;;5102391;28;20176;-66
2022/10/31 09:22:39;;;;;;;1999.90;999.90;;;16.20;99.90;;;;;;5096810;28;20534;-67
2022/10/31 09:25:05;;;;;;;1999.90;999.90;;;16.20;99.90;;;;;;5099607;28;20616;-67
2022/10/31 09:27:30;;;;;;;1999.90;999.90;;;16.20;99.90;;;;;;5099348;28;20175;-67
2022/10/31 09:29:56;;;;;;;1999.90;999.90;;;16.20;99.90;;;;;;5099310;28;20224;-67
2022/10/31 09:32:21;;;;;;;1999.90;999.90;;;16.30;99.90;;;;;;5099460;28;20202;-67
2022/10/31 09:34:47;;;;;;;1999.90;999.90;;;16.30;99.90;;;;;;5099616;28;20178;-67
2022/10/31 09:37:12;;;;;;;1999.90;999.90;;;16.30;99.90;;;;;;5103697;28;20628;-67
2022/10/31 09:39:38;;;;;;;1999.90;999.90;;;16.40;99.90;;;;;;5119509;28;20248;-66
2022/10/31 09:42:16;;;;;;;1999.90;999.90;;;16.40;99.90;;;;;;5120008;28;20165;-67
2022/10/31 09:44:55;;;;;;;1999.90;999.90;;;16.50;99.90;;;;;;5120018;28;20195;-67
2022/10/31 09:47:42;;;;;;;1999.90;999.90;;;16.60;99.90;;;;;;5118058;28;20407;-67
2022/10/31 09:50:19;;;;;;;1999.90;999.90;;;16.60;99.90;;;;;;5119834;28;20403;-67
2022/10/31 09:52:58;;;;;;;1999.90;999.90;;;16.80;99.90;;;;;;5101156;28;20607;-68
2022/10/31 09:55:47;;;;;;;1999.90;999.90;;;17.00;99.90;;;;;;5097777;28;20924;-67
2022/10/31 09:58:29;;;;;;;1999.90;999.90;;;17.20;99.90;;;;;;5095964;28;20426;-67
2022/10/31 10:00:58;;;;;;;1999.90;999.90;;;17.30;99.90;;;;;;5096312;28;20422;-68
2022/10/31 10:03:35;;;;;;;1999.90;999.90;;;17.60;99.90;;;;;;5095822;28;20430;-68
2022/10/31 10:06:19;;;;;;;1999.90;999.90;;;17.70;99.90;;;;;;5095656;28;20777;-68
2022/10/31 10:08:45;;;;;;;1999.90;999.90;;;17.70;99.90;;;;;;5101693;28;20407;-68
2022/10/31 10:11:28;;;;;;;1999.90;999.90;;;17.80;99.90;;;;;;5095933;28;20414;-68
2022/10/31 10:13:59;;;;;;;1999.90;999.90;;;18.00;99.90;;;;;;5094327;28;20620;-68
2022/10/31 10:16:52;;;;;;;1999.90;999.90;;;18.20;99.90;;;;;;5095296;28;20402;-67
2022/10/31 10:19:33;;;;;;;1999.90;999.90;;;18.30;99.90;;;;;;5113667;28;20428;-68
2022/10/31 10:22:20;;;;;;;1999.90;999.90;;;18.50;99.90;;;;;;5113458;28;20408;-68
2022/10/31 10:25:07;;;;;;;1999.90;999.90;;;18.60;99.90;;;;;;5113442;28;20501;-68
2022/10/31 10:27:40;;;;;;;1999.90;999.90;;;18.90;99.90;;;;;;5113334;28;20495;-68
2022/10/31 10:30:21;;;;;;;1999.90;999.90;;;19.20;99.90;;;;;;5117315;28;20401;-67
2022/10/31 10:32:54;;;;;;;1999.90;999.90;;;19.40;99.90;;;;;;5113705;28;20462;-68
2022/10/31 10:35:31;;;;;;;1999.90;999.90;;;19.70;99.90;;;;;;5102863;28;20775;-68
2022/10/31 10:38:03;;;;;;;1999.90;999.90;;;19.90;99.90;;;;;;5093201;28;20408;-68
2022/10/31 10:40:29;;;;;;;1999.90;999.90;;;20.00;99.90;;;;;;5093334;28;20413;-67
2022/10/31 10:43:23;;;;;;;1999.90;999.90;;;20.10;99.90;;;;;;5093595;28;20443;-68
2022/10/31 10:49:17;;;;;;;1999.90;999.90;;;20.30;99.90;;;;;;5094171;28;20431;-67
2022/10/31 10:51:59;;;;;;;1999.90;999.90;;;20.60;99.90;;;;;;5093003;28;20408;-66
2022/10/31 10:54:56;;;;;;;1999.90;999.90;;;20.70;99.90;;;;;;5092800;28;20408;-67
2022/10/31 10:57:54;;;;;;;1999.90;999.90;;;20.80;99.90;;;;;;5092347;28;20813;-67
2022/10/31 11:00:24;;;;;;;1999.90;999.90;;;20.70;99.90;;;;;;5092763;28;20408;-67
2022/10/31 11:02:50;;;;;;;1999.90;999.90;;;20.70;99.90;;;;;;5092655;28;20416;-67
2022/10/31 11:05:42;;;;;;;1999.90;999.90;;;20.70;99.90;;;;;;5074286;28;21089;-67
2022/10/31 11:08:08;;;;;;;1999.90;999.90;;;20.40;99.90;;;;;;5091689;28;20408;-67
2022/10/31 11:10:34;;;;;;;1999.90;999.90;;;20.30;99.90;;;;;;5091638;28;20427;-67
2022/10/31 11:13:09;;;;;;;1999.90;999.90;;;20.10;99.90;;;;;;5092587;28;20555;-68
2022/10/31 11:15:56;;;;;;;1999.90;999.90;;;20.10;99.90;;;;;;5091715;28;20403;-67
2022/10/31 11:18:27;;;;;;;1999.90;999.90;;;20.20;99.90;;;;;;5091866;28;20416;-67
2022/10/31 11:20:56;;;;;;;1999.90;999.90;;;20.10;99.90;;;;;;5091811;28;20428;-67
2022/10/31 11:23:24;;;;;;;1999.90;999.90;;;20.10;99.90;;;;;;5092432;28;20531;-69
2022/10/31 11:26:03;;;;;;;1999.90;999.90;;;20.30;99.90;;;;;;5088877;28;20415;-67
2022/10/31 11:28:32;;;;;;;1999.90;999.90;;;20.50;99.90;;;;;;5091426;28;20484;-68
2022/10/31 11:31:15;;;;;;;1999.90;999.90;;;20.50;99.90;;;;;;5092162;28;20430;-67
2022/10/31 11:33:49;;;;;;;1999.90;999.90;;;20.50;99.90;;;;;;5091562;28;20464;-68
2022/10/31 11:36:38;;;;;;;1999.90;999.90;;;20.50;99.90;;;;;;5091781;28;20407;-67
2022/10/31 11:39:13;;;;;;;1999.90;999.90;;;20.70;99.90;;;;;;5091152;28;20912;-67
2022/10/31 11:41:42;;;;;;;1999.90;999.90;;;20.70;99.90;;;;;;5091633;28;20396;-67
2022/10/31 11:44:25;;;;;;;1999.90;999.90;;;20.90;99.90;;;;;;5091804;28;20462;-67
2022/10/31 11:46:54;;;;;;;1999.90;999.90;;;21.00;99.90;;;;;;5090988;28;20410;-67
2022/10/31 11:49:37;;;;;;;1999.90;999.90;;;21.00;99.90;;;;;;5091511;28;20487;-67
2022/10/31 11:52:14;;;;;;;1999.90;999.90;;;21.10;99.90;;;;;;5091762;28;20397;-67
2022/10/31 11:54:53;;;;;;;1999.90;999.90;;;21.00;99.90;;;;;;5091153;28;20406;-67
2022/10/31 11:57:26;;;;;;;1999.90;999.90;;;21.00;99.90;;;;;;5091408;28;20925;-67
2022/10/31 11:59:54;;;;;;;1999.90;999.90;;;21.00;99.90;;;;;;5091435;28;20404;-68
2022/10/31 12:02:20;;;;;;;1999.90;999.90;;;21.20;99.90;;;;;;5091032;28;20564;-67
2022/10/31 12:05:16;;;;;;;1999.90;999.90;;;21.30;99.90;;;;;;5091578;28;20410;-68
2022/10/31 12:07:42;;;;;;;1999.90;999.90;;;21.60;99.90;;;;;;5091209;28;20419;-68
2022/10/31 12:10:12;;;;;;;1999.90;999.90;;;21.80;99.90;;;;;;5094072;28;20418;-68
2022/10/31 12:12:44;;;;;;;1999.90;999.90;;;21.70;99.90;;;;;;5095337;28;20215;-68
2022/10/31 12:15:19;;;;;;;1999.90;999.90;;;21.60;99.90;;;;;;5095720;28;20804;-68
2022/10/31 12:18:22;;;;;;;1999.90;999.90;;;21.60;99.90;;;;;;5095484;28;20434;-69